sensor_id;sensor_type;location;lat;lon;timestamp;P1;durP1;ratioP1;P2;durP2;ratioP2
21095;SDS011;10706;49.036;12.112;2023-12-28T00:01:59;12.97;;;5.83;;
21095;SDS011;10706;49.036;12.112;2023-12-28T00:04:25;15.80;;;7.37;;
21095;SDS011;10706;49.036;12.112;2023-12-28T00:06:53;17.67;;;6.73;;
21095;SDS011;10706;49.036;12.112;2023-12-28T00:09:19;13.67;;;5.90;;
21095;SDS011;10706;49.036;12.112;2023-12-28T00:11:45;17.10;;;7.33;;
21095;SDS011;10706;49.036;12.112;2023-12-28T00:14:11;19.17;;;6.93;;
21095;SDS011;10706;49.036;12.112;2023-12-28T00:16:37;17.13;;;7.00;;
21095;SDS011;10706;49.036;12.112;2023-12-28T00:19:03;16.07;;;7.40;;
21095;SDS011;10706;49.036;12.112;2023-12-28T00:21:30;18.07;;;7.57;;
21095;SDS011;10706;49.036;12.112;2023-12-28T00:23:56;18.17;;;7.13;;
21095;SDS011;10706;49.036;12.112;2023-12-28T00:26:22;15.77;;;7.27;;
21095;SDS011;10706;49.036;12.112;2023-12-28T00:28:48;19.07;;;7.67;;
21095;SDS011;10706;49.036;12.112;2023-12-28T00:31:14;15.00;;;6.67;;
21095;SDS011;10706;49.036;12.112;2023-12-28T00:33:40;17.73;;;7.40;;
21095;SDS011;10706;49.036;12.112;2023-12-28T00:36:06;16.03;;;6.77;;
21095;SDS011;10706;49.036;12.112;2023-12-28T00:38:32;15.80;;;7.23;;
21095;SDS011;10706;49.036;12.112;2023-12-28T00:40:58;17.93;;;6.93;;
21095;SDS011;10706;49.036;12.112;2023-12-28T00:43:24;18.90;;;7.83;;
21095;SDS011;10706;49.036;12.112;2023-12-28T00:45:50;22.07;;;8.53;;
21095;SDS011;10706;49.036;12.112;2023-12-28T00:48:16;17.17;;;7.47;;
21095;SDS011;10706;49.036;12.112;2023-12-28T00:50:42;18.13;;;8.33;;
21095;SDS011;10706;49.036;12.112;2023-12-28T00:53:08;17.20;;;8.10;;
21095;SDS011;10706;49.036;12.112;2023-12-28T00:55:34;16.77;;;7.30;;
21095;SDS011;10706;49.036;12.112;2023-12-28T00:58:00;17.07;;;7.83;;
21095;SDS011;10706;49.036;12.112;2023-12-28T01:00:26;17.83;;;7.80;;
21095;SDS011;10706;49.036;12.112;2023-12-28T01:02:51;20.37;;;9.10;;
21095;SDS011;10706;49.036;12.112;2023-12-28T01:05:18;17.17;;;8.23;;
21095;SDS011;10706;49.036;12.112;2023-12-28T01:07:46;16.57;;;7.93;;
21095;SDS011;10706;49.036;12.112;2023-12-28T01:10:12;18.60;;;8.13;;
21095;SDS011;10706;49.036;12.112;2023-12-28T01:12:38;17.10;;;8.47;;
21095;SDS011;10706;49.036;12.112;2023-12-28T01:15:04;21.50;;;9.13;;
21095;SDS011;10706;49.036;12.112;2023-12-28T01:17:32;18.97;;;8.57;;
21095;SDS011;10706;49.036;12.112;2023-12-28T01:19:58;19.90;;;8.43;;
21095;SDS011;10706;49.036;12.112;2023-12-28T01:22:24;18.90;;;8.87;;
21095;SDS011;10706;49.036;12.112;2023-12-28T01:24:50;21.13;;;8.40;;
21095;SDS011;10706;49.036;12.112;2023-12-28T01:27:16;18.87;;;8.87;;
21095;SDS011;10706;49.036;12.112;2023-12-28T01:29:43;19.83;;;9.27;;
21095;SDS011;10706;49.036;12.112;2023-12-28T01:32:09;18.03;;;8.40;;
21095;SDS011;10706;49.036;12.112;2023-12-28T01:34:35;23.63;;;9.50;;
21095;SDS011;10706;49.036;12.112;2023-12-28T01:37:00;17.83;;;8.40;;
21095;SDS011;10706;49.036;12.112;2023-12-28T01:39:27;20.40;;;9.27;;
21095;SDS011;10706;49.036;12.112;2023-12-28T01:41:53;17.20;;;8.40;;
21095;SDS011;10706;49.036;12.112;2023-12-28T01:44:20;18.10;;;8.80;;
21095;SDS011;10706;49.036;12.112;2023-12-28T01:46:46;26.93;;;10.33;;
21095;SDS011;10706;49.036;12.112;2023-12-28T01:49:12;21.13;;;9.37;;
21095;SDS011;10706;49.036;12.112;2023-12-28T01:51:38;22.33;;;9.20;;
21095;SDS011;10706;49.036;12.112;2023-12-28T01:54:05;19.73;;;9.23;;
21095;SDS011;10706;49.036;12.112;2023-12-28T01:56:31;24.47;;;10.23;;
21095;SDS011;10706;49.036;12.112;2023-12-28T01:58:57;24.87;;;10.43;;
21095;SDS011;10706;49.036;12.112;2023-12-28T02:01:24;18.03;;;8.57;;
21095;SDS011;10706;49.036;12.112;2023-12-28T02:03:51;21.43;;;9.50;;
21095;SDS011;10706;49.036;12.112;2023-12-28T02:06:18;22.83;;;10.47;;
21095;SDS011;10706;49.036;12.112;2023-12-28T02:08:47;21.37;;;10.27;;
21095;SDS011;10706;49.036;12.112;2023-12-28T02:11:13;22.40;;;10.20;;
21095;SDS011;10706;49.036;12.112;2023-12-28T02:13:40;20.50;;;9.67;;
21095;SDS011;10706;49.036;12.112;2023-12-28T02:16:13;19.67;;;9.53;;
21095;SDS011;10706;49.036;12.112;2023-12-28T02:18:50;21.80;;;10.67;;
21095;SDS011;10706;49.036;12.112;2023-12-28T02:21:19;24.30;;;10.50;;
21095;SDS011;10706;49.036;12.112;2023-12-28T02:23:47;25.70;;;10.83;;
21095;SDS011;10706;49.036;12.112;2023-12-28T02:26:14;23.77;;;11.23;;
21095;SDS011;10706;49.036;12.112;2023-12-28T02:28:41;25.43;;;11.33;;
21095;SDS011;10706;49.036;12.112;2023-12-28T02:31:08;23.53;;;11.27;;
21095;SDS011;10706;49.036;12.112;2023-12-28T02:33:50;21.73;;;11.17;;
21095;SDS011;10706;49.036;12.112;2023-12-28T02:36:29;20.77;;;9.67;;
21095;SDS011;10706;49.036;12.112;2023-12-28T02:38:55;22.50;;;9.77;;
21095;SDS011;10706;49.036;12.112;2023-12-28T02:41:23;23.20;;;11.07;;
21095;SDS011;10706;49.036;12.112;2023-12-28T02:43:50;21.87;;;11.30;;
21095;SDS011;10706;49.036;12.112;2023-12-28T02:46:16;21.43;;;10.80;;
21095;SDS011;10706;49.036;12.112;2023-12-28T02:48:43;22.17;;;10.87;;
21095;SDS011;10706;49.036;12.112;2023-12-28T02:51:09;22.53;;;10.57;;
21095;SDS011;10706;49.036;12.112;2023-12-28T02:53:35;22.37;;;10.97;;
21095;SDS011;10706;49.036;12.112;2023-12-28T02:56:01;21.93;;;10.20;;
21095;SDS011;10706;49.036;12.112;2023-12-28T02:58:27;21.67;;;10.50;;
21095;SDS011;10706;49.036;12.112;2023-12-28T03:00:53;22.13;;;10.40;;
21095;SDS011;10706;49.036;12.112;2023-12-28T03:03:19;21.90;;;10.03;;
21095;SDS011;10706;49.036;12.112;2023-12-28T03:05:45;20.93;;;10.33;;
21095;SDS011;10706;49.036;12.112;2023-12-28T03:08:11;22.63;;;9.87;;
21095;SDS011;10706;49.036;12.112;2023-12-28T03:10:38;21.20;;;9.30;;
21095;SDS011;10706;49.036;12.112;2023-12-28T03:13:04;19.63;;;9.00;;
21095;SDS011;10706;49.036;12.112;2023-12-28T03:15:30;22.80;;;9.50;;
21095;SDS011;10706;49.036;12.112;2023-12-28T03:17:57;21.70;;;10.30;;
21095;SDS011;10706;49.036;12.112;2023-12-28T03:20:23;22.00;;;10.37;;
21095;SDS011;10706;49.036;12.112;2023-12-28T03:22:49;27.93;;;10.97;;
21095;SDS011;10706;49.036;12.112;2023-12-28T03:25:15;21.50;;;10.53;;
21095;SDS011;10706;49.036;12.112;2023-12-28T03:27:41;21.80;;;11.23;;
21095;SDS011;10706;49.036;12.112;2023-12-28T03:30:08;25.07;;;10.50;;
21095;SDS011;10706;49.036;12.112;2023-12-28T03:32:34;22.63;;;10.23;;
21095;SDS011;10706;49.036;12.112;2023-12-28T03:35:00;24.53;;;10.97;;
21095;SDS011;10706;49.036;12.112;2023-12-28T03:37:27;22.17;;;11.10;;
21095;SDS011;10706;49.036;12.112;2023-12-28T03:39:53;23.17;;;10.33;;
21095;SDS011;10706;49.036;12.112;2023-12-28T03:42:19;21.13;;;10.63;;
21095;SDS011;10706;49.036;12.112;2023-12-28T03:44:47;28.90;;;11.13;;
21095;SDS011;10706;49.036;12.112;2023-12-28T03:47:13;23.70;;;11.23;;
21095;SDS011;10706;49.036;12.112;2023-12-28T03:49:39;25.80;;;12.30;;
21095;SDS011;10706;49.036;12.112;2023-12-28T03:52:05;28.83;;;11.43;;
21095;SDS011;10706;49.036;12.112;2023-12-28T03:54:31;23.00;;;11.10;;
21095;SDS011;10706;49.036;12.112;2023-12-28T03:56:57;26.10;;;12.40;;
21095;SDS011;10706;49.036;12.112;2023-12-28T03:59:23;26.50;;;12.83;;
21095;SDS011;10706;49.036;12.112;2023-12-28T04:01:49;27.90;;;12.57;;
21095;SDS011;10706;49.036;12.112;2023-12-28T04:04:15;25.70;;;11.40;;
21095;SDS011;10706;49.036;12.112;2023-12-28T04:06:41;25.73;;;12.80;;
21095;SDS011;10706;49.036;12.112;2023-12-28T04:09:10;25.13;;;12.13;;
21095;SDS011;10706;49.036;12.112;2023-12-28T04:11:37;24.23;;;12.10;;
21095;SDS011;10706;49.036;12.112;2023-12-28T04:14:03;26.97;;;11.70;;
21095;SDS011;10706;49.036;12.112;2023-12-28T04:16:29;25.03;;;11.57;;
21095;SDS011;10706;49.036;12.112;2023-12-28T04:18:55;24.50;;;12.20;;
21095;SDS011;10706;49.036;12.112;2023-12-28T04:21:22;24.30;;;11.87;;
21095;SDS011;10706;49.036;12.112;2023-12-28T04:23:48;28.60;;;12.50;;
21095;SDS011;10706;49.036;12.112;2023-12-28T04:26:17;27.17;;;11.43;;
21095;SDS011;10706;49.036;12.112;2023-12-28T04:28:45;26.70;;;12.10;;
21095;SDS011;10706;49.036;12.112;2023-12-28T04:31:11;23.73;;;11.87;;
21095;SDS011;10706;49.036;12.112;2023-12-28T04:33:37;23.57;;;11.30;;
21095;SDS011;10706;49.036;12.112;2023-12-28T04:36:03;21.27;;;11.17;;
21095;SDS011;10706;49.036;12.112;2023-12-28T04:38:30;23.33;;;12.40;;
21095;SDS011;10706;49.036;12.112;2023-12-28T04:40:57;30.87;;;12.33;;
21095;SDS011;10706;49.036;12.112;2023-12-28T04:43:23;25.07;;;11.90;;
21095;SDS011;10706;49.036;12.112;2023-12-28T04:45:50;27.50;;;13.13;;
21095;SDS011;10706;49.036;12.112;2023-12-28T04:48:16;25.57;;;12.47;;
21095;SDS011;10706;49.036;12.112;2023-12-28T04:50:48;20.30;;;10.90;;
21095;SDS011;10706;49.036;12.112;2023-12-28T04:53:15;26.10;;;11.70;;
21095;SDS011;10706;49.036;12.112;2023-12-28T04:55:41;27.57;;;12.93;;
21095;SDS011;10706;49.036;12.112;2023-12-28T04:58:07;26.73;;;11.87;;
21095;SDS011;10706;49.036;12.112;2023-12-28T05:00:35;29.40;;;12.27;;
21095;SDS011;10706;49.036;12.112;2023-12-28T05:03:01;27.10;;;12.17;;
21095;SDS011;10706;49.036;12.112;2023-12-28T05:05:27;31.83;;;12.87;;
21095;SDS011;10706;49.036;12.112;2023-12-28T05:07:53;31.90;;;12.50;;
21095;SDS011;10706;49.036;12.112;2023-12-28T05:10:19;26.57;;;12.53;;
21095;SDS011;10706;49.036;12.112;2023-12-28T05:12:45;28.30;;;12.57;;
21095;SDS011;10706;49.036;12.112;2023-12-28T05:15:11;28.67;;;12.40;;
21095;SDS011;10706;49.036;12.112;2023-12-28T05:17:37;28.33;;;13.87;;
21095;SDS011;10706;49.036;12.112;2023-12-28T05:20:03;29.77;;;13.57;;
21095;SDS011;10706;49.036;12.112;2023-12-28T05:22:30;29.93;;;13.03;;
21095;SDS011;10706;49.036;12.112;2023-12-28T05:24:56;29.20;;;13.07;;
21095;SDS011;10706;49.036;12.112;2023-12-28T05:27:22;28.60;;;14.17;;
21095;SDS011;10706;49.036;12.112;2023-12-28T05:29:48;27.93;;;13.40;;
21095;SDS011;10706;49.036;12.112;2023-12-28T05:32:14;30.73;;;14.77;;
21095;SDS011;10706;49.036;12.112;2023-12-28T05:34:40;30.37;;;14.00;;
21095;SDS011;10706;49.036;12.112;2023-12-28T05:37:06;25.63;;;13.43;;
21095;SDS011;10706;49.036;12.112;2023-12-28T05:39:32;25.07;;;12.53;;
21095;SDS011;10706;49.036;12.112;2023-12-28T05:41:58;28.40;;;12.87;;
21095;SDS011;10706;49.036;12.112;2023-12-28T05:44:24;26.23;;;12.60;;
21095;SDS011;10706;49.036;12.112;2023-12-28T05:46:50;22.73;;;12.33;;
21095;SDS011;10706;49.036;12.112;2023-12-28T05:49:17;31.23;;;13.67;;
21095;SDS011;10706;49.036;12.112;2023-12-28T05:51:43;25.77;;;12.20;;
21095;SDS011;10706;49.036;12.112;2023-12-28T05:54:09;23.47;;;10.57;;
21095;SDS011;10706;49.036;12.112;2023-12-28T05:56:35;26.50;;;11.87;;
21095;SDS011;10706;49.036;12.112;2023-12-28T05:59:01;25.20;;;11.77;;
21095;SDS011;10706;49.036;12.112;2023-12-28T06:01:27;26.30;;;11.97;;
21095;SDS011;10706;49.036;12.112;2023-12-28T06:03:53;26.17;;;12.63;;
21095;SDS011;10706;49.036;12.112;2023-12-28T06:06:19;23.43;;;12.03;;
21095;SDS011;10706;49.036;12.112;2023-12-28T06:08:45;27.67;;;11.47;;
21095;SDS011;10706;49.036;12.112;2023-12-28T06:11:12;27.90;;;12.33;;
21095;SDS011;10706;49.036;12.112;2023-12-28T06:13:38;22.60;;;10.73;;
21095;SDS011;10706;49.036;12.112;2023-12-28T06:16:04;25.60;;;12.10;;
21095;SDS011;10706;49.036;12.112;2023-12-28T06:18:30;29.13;;;12.50;;
21095;SDS011;10706;49.036;12.112;2023-12-28T06:20:56;21.60;;;10.90;;
21095;SDS011;10706;49.036;12.112;2023-12-28T06:23:21;27.40;;;12.60;;
21095;SDS011;10706;49.036;12.112;2023-12-28T06:25:47;26.13;;;12.60;;
21095;SDS011;10706;49.036;12.112;2023-12-28T06:28:13;26.97;;;12.33;;
21095;SDS011;10706;49.036;12.112;2023-12-28T06:30:38;26.63;;;13.20;;
21095;SDS011;10706;49.036;12.112;2023-12-28T06:33:04;23.90;;;11.50;;
21095;SDS011;10706;49.036;12.112;2023-12-28T06:35:30;26.27;;;12.70;;
21095;SDS011;10706;49.036;12.112;2023-12-28T06:37:56;22.30;;;11.30;;
21095;SDS011;10706;49.036;12.112;2023-12-28T06:40:22;26.03;;;11.63;;
21095;SDS011;10706;49.036;12.112;2023-12-28T06:42:47;26.73;;;12.00;;
21095;SDS011;10706;49.036;12.112;2023-12-28T06:45:14;24.57;;;10.23;;
21095;SDS011;10706;49.036;12.112;2023-12-28T06:47:40;24.90;;;10.87;;
21095;SDS011;10706;49.036;12.112;2023-12-28T06:50:06;23.20;;;11.60;;
21095;SDS011;10706;49.036;12.112;2023-12-28T06:52:32;27.13;;;11.10;;
21095;SDS011;10706;49.036;12.112;2023-12-28T06:54:58;24.57;;;11.50;;
21095;SDS011;10706;49.036;12.112;2023-12-28T06:57:24;24.50;;;10.70;;
21095;SDS011;10706;49.036;12.112;2023-12-28T06:59:50;22.13;;;10.93;;
21095;SDS011;10706;49.036;12.112;2023-12-28T07:02:16;20.47;;;10.40;;
21095;SDS011;10706;49.036;12.112;2023-12-28T07:04:42;22.80;;;11.03;;
21095;SDS011;10706;49.036;12.112;2023-12-28T07:07:09;22.87;;;10.40;;
21095;SDS011;10706;49.036;12.112;2023-12-28T07:09:35;24.60;;;11.33;;
21095;SDS011;10706;49.036;12.112;2023-12-28T07:12:02;20.87;;;9.43;;
21095;SDS011;10706;49.036;12.112;2023-12-28T07:14:28;20.63;;;10.33;;
21095;SDS011;10706;49.036;12.112;2023-12-28T07:16:54;22.90;;;10.17;;
21095;SDS011;10706;49.036;12.112;2023-12-28T07:19:20;24.47;;;9.40;;
21095;SDS011;10706;49.036;12.112;2023-12-28T07:21:46;19.63;;;9.77;;
21095;SDS011;10706;49.036;12.112;2023-12-28T07:24:12;26.27;;;10.20;;
21095;SDS011;10706;49.036;12.112;2023-12-28T07:26:38;21.43;;;9.70;;
21095;SDS011;10706;49.036;12.112;2023-12-28T07:29:04;18.73;;;9.20;;
21095;SDS011;10706;49.036;12.112;2023-12-28T07:31:30;18.47;;;8.87;;
21095;SDS011;10706;49.036;12.112;2023-12-28T07:33:57;18.60;;;8.13;;
21095;SDS011;10706;49.036;12.112;2023-12-28T07:36:23;17.40;;;8.73;;
21095;SDS011;10706;49.036;12.112;2023-12-28T07:38:49;16.97;;;8.37;;
21095;SDS011;10706;49.036;12.112;2023-12-28T07:41:15;17.80;;;9.17;;
21095;SDS011;10706;49.036;12.112;2023-12-28T07:43:41;24.90;;;9.27;;
21095;SDS011;10706;49.036;12.112;2023-12-28T07:46:07;20.23;;;8.80;;
21095;SDS011;10706;49.036;12.112;2023-12-28T07:48:33;31.03;;;8.60;;
21095;SDS011;10706;49.036;12.112;2023-12-28T07:51:06;19.87;;;9.30;;
21095;SDS011;10706;49.036;12.112;2023-12-28T07:53:33;18.60;;;8.43;;
21095;SDS011;10706;49.036;12.112;2023-12-28T07:55:59;16.37;;;7.53;;
21095;SDS011;10706;49.036;12.112;2023-12-28T07:58:25;19.90;;;8.20;;
21095;SDS011;10706;49.036;12.112;2023-12-28T08:00:51;18.50;;;8.60;;
21095;SDS011;10706;49.036;12.112;2023-12-28T08:03:17;20.83;;;8.13;;
21095;SDS011;10706;49.036;12.112;2023-12-28T08:05:44;18.00;;;8.00;;
21095;SDS011;10706;49.036;12.112;2023-12-28T08:08:10;18.97;;;8.63;;
21095;SDS011;10706;49.036;12.112;2023-12-28T08:10:36;16.83;;;8.10;;
21095;SDS011;10706;49.036;12.112;2023-12-28T08:13:02;17.80;;;8.70;;
21095;SDS011;10706;49.036;12.112;2023-12-28T08:15:28;20.80;;;7.50;;
21095;SDS011;10706;49.036;12.112;2023-12-28T08:17:54;19.23;;;8.17;;
21095;SDS011;10706;49.036;12.112;2023-12-28T08:20:19;16.27;;;7.43;;
21095;SDS011;10706;49.036;12.112;2023-12-28T08:22:45;21.87;;;7.97;;
21095;SDS011;10706;49.036;12.112;2023-12-28T08:25:11;19.47;;;8.87;;
21095;SDS011;10706;49.036;12.112;2023-12-28T08:27:38;19.83;;;8.37;;
21095;SDS011;10706;49.036;12.112;2023-12-28T08:30:04;18.03;;;7.97;;
21095;SDS011;10706;49.036;12.112;2023-12-28T08:32:31;16.40;;;7.40;;
21095;SDS011;10706;49.036;12.112;2023-12-28T08:34:57;18.57;;;7.60;;
21095;SDS011;10706;49.036;12.112;2023-12-28T08:37:23;18.87;;;7.83;;
21095;SDS011;10706;49.036;12.112;2023-12-28T08:39:49;18.37;;;7.90;;
21095;SDS011;10706;49.036;12.112;2023-12-28T08:42:15;17.07;;;8.07;;
21095;SDS011;10706;49.036;12.112;2023-12-28T08:44:41;14.37;;;6.67;;
21095;SDS011;10706;49.036;12.112;2023-12-28T08:47:07;17.47;;;8.03;;
21095;SDS011;10706;49.036;12.112;2023-12-28T08:49:33;20.50;;;7.70;;
21095;SDS011;10706;49.036;12.112;2023-12-28T08:51:59;18.53;;;8.40;;
21095;SDS011;10706;49.036;12.112;2023-12-28T08:54:25;18.53;;;7.93;;
21095;SDS011;10706;49.036;12.112;2023-12-28T08:56:51;19.03;;;8.17;;
21095;SDS011;10706;49.036;12.112;2023-12-28T08:59:17;20.83;;;8.33;;
21095;SDS011;10706;49.036;12.112;2023-12-28T09:01:43;17.60;;;7.93;;
21095;SDS011;10706;49.036;12.112;2023-12-28T09:04:09;16.23;;;6.83;;
21095;SDS011;10706;49.036;12.112;2023-12-28T09:06:36;18.47;;;7.77;;
21095;SDS011;10706;49.036;12.112;2023-12-28T09:09:02;18.93;;;7.53;;
21095;SDS011;10706;49.036;12.112;2023-12-28T09:11:29;16.83;;;7.83;;
21095;SDS011;10706;49.036;12.112;2023-12-28T09:13:55;17.07;;;8.13;;
21095;SDS011;10706;49.036;12.112;2023-12-28T09:16:20;16.73;;;7.87;;
21095;SDS011;10706;49.036;12.112;2023-12-28T09:18:46;18.47;;;7.03;;
21095;SDS011;10706;49.036;12.112;2023-12-28T09:21:12;16.43;;;8.03;;
21095;SDS011;10706;49.036;12.112;2023-12-28T09:23:38;16.77;;;7.10;;
21095;SDS011;10706;49.036;12.112;2023-12-28T09:26:05;16.57;;;8.10;;
21095;SDS011;10706;49.036;12.112;2023-12-28T09:28:32;17.83;;;8.13;;
21095;SDS011;10706;49.036;12.112;2023-12-28T09:30:59;15.60;;;7.37;;
21095;SDS011;10706;49.036;12.112;2023-12-28T09:33:26;19.23;;;7.90;;
21095;SDS011;10706;49.036;12.112;2023-12-28T09:35:53;14.43;;;7.07;;
21095;SDS011;10706;49.036;12.112;2023-12-28T09:38:18;16.20;;;7.30;;
21095;SDS011;10706;49.036;12.112;2023-12-28T09:40:45;15.97;;;7.17;;
21095;SDS011;10706;49.036;12.112;2023-12-28T09:45:51;16.03;;;7.10;;
21095;SDS011;10706;49.036;12.112;2023-12-28T09:48:19;16.03;;;7.17;;
21095;SDS011;10706;49.036;12.112;2023-12-28T09:50:53;16.07;;;7.00;;
21095;SDS011;10706;49.036;12.112;2023-12-28T09:53:21;16.73;;;6.60;;
21095;SDS011;10706;49.036;12.112;2023-12-28T09:55:50;16.23;;;6.57;;
21095;SDS011;10706;49.036;12.112;2023-12-28T10:01:47;15.80;;;7.33;;
21095;SDS011;10706;49.036;12.112;2023-12-28T10:07:35;18.40;;;7.10;;
21095;SDS011;10706;49.036;12.112;2023-12-28T10:10:15;15.80;;;7.10;;
21095;SDS011;10706;49.036;12.112;2023-12-28T10:13:07;17.60;;;6.93;;
21095;SDS011;10706;49.036;12.112;2023-12-28T10:15:37;18.30;;;6.80;;
21095;SDS011;10706;49.036;12.112;2023-12-28T10:18:06;14.07;;;6.50;;
21095;SDS011;10706;49.036;12.112;2023-12-28T10:20:32;17.00;;;7.10;;
21095;SDS011;10706;49.036;12.112;2023-12-28T10:23:01;19.40;;;7.33;;
21095;SDS011;10706;49.036;12.112;2023-12-28T10:25:27;16.50;;;7.30;;
21095;SDS011;10706;49.036;12.112;2023-12-28T10:27:54;18.10;;;7.53;;
21095;SDS011;10706;49.036;12.112;2023-12-28T10:30:20;19.90;;;7.40;;
21095;SDS011;10706;49.036;12.112;2023-12-28T10:32:47;16.63;;;7.27;;
21095;SDS011;10706;49.036;12.112;2023-12-28T10:35:13;16.33;;;7.43;;
21095;SDS011;10706;49.036;12.112;2023-12-28T10:37:40;14.37;;;6.63;;
21095;SDS011;10706;49.036;12.112;2023-12-28T10:40:07;15.83;;;6.90;;
21095;SDS011;10706;49.036;12.112;2023-12-28T10:42:39;14.47;;;6.57;;
21095;SDS011;10706;49.036;12.112;2023-12-28T10:45:28;17.00;;;7.43;;
21095;SDS011;10706;49.036;12.112;2023-12-28T10:48:10;16.43;;;7.33;;
21095;SDS011;10706;49.036;12.112;2023-12-28T10:50:41;18.40;;;7.27;;
21095;SDS011;10706;49.036;12.112;2023-12-28T10:58:47;22.30;;;7.90;;
21095;SDS011;10706;49.036;12.112;2023-12-28T11:01:23;16.77;;;7.03;;
21095;SDS011;10706;49.036;12.112;2023-12-28T11:06:49;17.57;;;6.50;;
21095;SDS011;10706;49.036;12.112;2023-12-28T11:09:16;15.83;;;6.57;;
21095;SDS011;10706;49.036;12.112;2023-12-28T11:11:43;15.43;;;6.53;;
21095;SDS011;10706;49.036;12.112;2023-12-28T11:14:11;13.93;;;6.23;;
21095;SDS011;10706;49.036;12.112;2023-12-28T11:16:42;14.13;;;6.73;;
21095;SDS011;10706;49.036;12.112;2023-12-28T11:19:09;15.83;;;7.07;;
21095;SDS011;10706;49.036;12.112;2023-12-28T11:21:36;16.87;;;6.80;;
21095;SDS011;10706;49.036;12.112;2023-12-28T11:24:03;18.53;;;7.47;;
21095;SDS011;10706;49.036;12.112;2023-12-28T11:26:33;18.13;;;7.40;;
21095;SDS011;10706;49.036;12.112;2023-12-28T11:29:03;19.53;;;7.20;;
21095;SDS011;10706;49.036;12.112;2023-12-28T11:31:32;14.50;;;6.47;;
21095;SDS011;10706;49.036;12.112;2023-12-28T11:34:05;15.63;;;6.97;;
21095;SDS011;10706;49.036;12.112;2023-12-28T11:36:41;17.07;;;7.10;;
21095;SDS011;10706;49.036;12.112;2023-12-28T11:39:31;16.60;;;7.10;;
21095;SDS011;10706;49.036;12.112;2023-12-28T11:42:03;16.10;;;7.73;;
21095;SDS011;10706;49.036;12.112;2023-12-28T11:47:23;17.83;;;6.57;;
21095;SDS011;10706;49.036;12.112;2023-12-28T11:49:53;18.33;;;7.63;;
21095;SDS011;10706;49.036;12.112;2023-12-28T11:52:37;15.17;;;6.77;;
21095;SDS011;10706;49.036;12.112;2023-12-28T11:55:04;16.67;;;6.77;;
21095;SDS011;10706;49.036;12.112;2023-12-28T11:57:31;13.17;;;6.30;;
21095;SDS011;10706;49.036;12.112;2023-12-28T12:00:00;18.00;;;6.80;;
21095;SDS011;10706;49.036;12.112;2023-12-28T12:02:35;12.77;;;5.63;;
21095;SDS011;10706;49.036;12.112;2023-12-28T12:05:27;20.03;;;7.30;;
21095;SDS011;10706;49.036;12.112;2023-12-28T12:07:54;16.73;;;6.13;;
21095;SDS011;10706;49.036;12.112;2023-12-28T12:10:23;16.63;;;5.77;;
21095;SDS011;10706;49.036;12.112;2023-12-28T12:13:18;13.40;;;6.10;;
21095;SDS011;10706;49.036;12.112;2023-12-28T12:15:50;15.47;;;5.70;;
21095;SDS011;10706;49.036;12.112;2023-12-28T12:18:19;14.83;;;6.27;;
21095;SDS011;10706;49.036;12.112;2023-12-28T12:20:45;13.47;;;6.53;;
21095;SDS011;10706;49.036;12.112;2023-12-28T12:23:11;13.63;;;6.20;;
21095;SDS011;10706;49.036;12.112;2023-12-28T12:25:38;11.60;;;5.83;;
21095;SDS011;10706;49.036;12.112;2023-12-28T12:28:08;12.60;;;5.73;;
21095;SDS011;10706;49.036;12.112;2023-12-28T12:30:53;14.17;;;6.20;;
21095;SDS011;10706;49.036;12.112;2023-12-28T12:33:27;14.77;;;6.60;;
21095;SDS011;10706;49.036;12.112;2023-12-28T12:35:54;14.70;;;5.63;;
21095;SDS011;10706;49.036;12.112;2023-12-28T12:38:21;14.23;;;6.10;;
21095;SDS011;10706;49.036;12.112;2023-12-28T12:40:50;15.17;;;5.80;;
21095;SDS011;10706;49.036;12.112;2023-12-28T12:43:16;14.30;;;6.50;;
21095;SDS011;10706;49.036;12.112;2023-12-28T12:48:12;17.70;;;6.17;;
21095;SDS011;10706;49.036;12.112;2023-12-28T12:50:48;15.23;;;6.30;;
21095;SDS011;10706;49.036;12.112;2023-12-28T12:53:15;11.60;;;5.17;;
21095;SDS011;10706;49.036;12.112;2023-12-28T12:55:47;14.70;;;5.53;;
21095;SDS011;10706;49.036;12.112;2023-12-28T12:58:22;14.80;;;5.80;;
21095;SDS011;10706;49.036;12.112;2023-12-28T13:01:01;14.90;;;5.93;;
21095;SDS011;10706;49.036;12.112;2023-12-28T13:03:37;15.90;;;5.87;;
21095;SDS011;10706;49.036;12.112;2023-12-28T13:09:11;13.70;;;5.73;;
21095;SDS011;10706;49.036;12.112;2023-12-28T13:11:37;14.17;;;5.80;;
21095;SDS011;10706;49.036;12.112;2023-12-28T13:14:11;12.23;;;5.57;;
21095;SDS011;10706;49.036;12.112;2023-12-28T13:16:43;13.53;;;5.60;;
21095;SDS011;10706;49.036;12.112;2023-12-28T13:19:22;13.20;;;5.70;;
21095;SDS011;10706;49.036;12.112;2023-12-28T13:21:52;14.80;;;5.83;;
21095;SDS011;10706;49.036;12.112;2023-12-28T13:24:19;15.03;;;6.27;;
21095;SDS011;10706;49.036;12.112;2023-12-28T13:26:45;14.23;;;5.67;;
21095;SDS011;10706;49.036;12.112;2023-12-28T13:29:11;13.87;;;5.43;;
21095;SDS011;10706;49.036;12.112;2023-12-28T13:31:40;12.17;;;5.13;;
21095;SDS011;10706;49.036;12.112;2023-12-28T13:34:06;13.50;;;5.27;;
21095;SDS011;10706;49.036;12.112;2023-12-28T13:36:32;13.33;;;5.03;;
21095;SDS011;10706;49.036;12.112;2023-12-28T13:38:59;13.27;;;6.00;;
21095;SDS011;10706;49.036;12.112;2023-12-28T13:41:25;13.53;;;5.83;;
21095;SDS011;10706;49.036;12.112;2023-12-28T13:43:52;12.23;;;5.80;;
21095;SDS011;10706;49.036;12.112;2023-12-28T13:46:29;14.17;;;5.60;;
21095;SDS011;10706;49.036;12.112;2023-12-28T13:48:56;14.07;;;5.60;;
21095;SDS011;10706;49.036;12.112;2023-12-28T13:51:47;15.50;;;6.60;;
21095;SDS011;10706;49.036;12.112;2023-12-28T13:54:21;16.00;;;5.87;;
21095;SDS011;10706;49.036;12.112;2023-12-28T13:56:47;15.10;;;5.83;;
21095;SDS011;10706;49.036;12.112;2023-12-28T13:59:21;16.73;;;5.60;;
21095;SDS011;10706;49.036;12.112;2023-12-28T14:01:48;14.83;;;5.80;;
21095;SDS011;10706;49.036;12.112;2023-12-28T14:04:17;13.93;;;5.50;;
21095;SDS011;10706;49.036;12.112;2023-12-28T14:06:43;12.00;;;5.10;;
21095;SDS011;10706;49.036;12.112;2023-12-28T14:09:18;14.60;;;5.70;;
21095;SDS011;10706;49.036;12.112;2023-12-28T14:12:23;19.63;;;6.00;;
21095;SDS011;10706;49.036;12.112;2023-12-28T14:15:23;11.87;;;4.83;;
21095;SDS011;10706;49.036;12.112;2023-12-28T14:17:51;14.40;;;5.57;;
21095;SDS011;10706;49.036;12.112;2023-12-28T14:20:17;12.97;;;5.43;;
21095;SDS011;10706;49.036;12.112;2023-12-28T14:22:43;12.33;;;5.20;;
21095;SDS011;10706;49.036;12.112;2023-12-28T14:25:10;16.20;;;6.30;;
21095;SDS011;10706;49.036;12.112;2023-12-28T14:27:37;11.53;;;5.20;;
21095;SDS011;10706;49.036;12.112;2023-12-28T14:30:04;12.37;;;5.87;;
21095;SDS011;10706;49.036;12.112;2023-12-28T14:32:38;11.93;;;6.10;;
21095;SDS011;10706;49.036;12.112;2023-12-28T14:35:04;16.67;;;6.40;;
21095;SDS011;10706;49.036;12.112;2023-12-28T14:37:31;14.37;;;5.63;;
21095;SDS011;10706;49.036;12.112;2023-12-28T14:39:57;15.33;;;5.47;;
21095;SDS011;10706;49.036;12.112;2023-12-28T14:42:32;13.03;;;5.50;;
21095;SDS011;10706;49.036;12.112;2023-12-28T14:44:59;14.90;;;6.27;;
21095;SDS011;10706;49.036;12.112;2023-12-28T14:47:31;13.97;;;5.23;;